Terminal Aerodrome Forecast
Issued by NWS Jackson, KY

Home | Current Version | Previous Version | Text Only | Print | Product List | Glossary On
Versions: 1 2 3 4 5 6 7 8 9 10 11 12 13 14 15 16 17 18 19
855
FTUS43 KJKL 251148
TAFJKL
TAF
KJKL 251148Z 2512/2612 17004KT P6SM SCT070 SCT200
     FM251500 18006G17KT P6SM SCT070 BKN200
     FM252300 17004KT P6SM BKN200
     FM261000 15004KT 6SM -SHRA OVC050=

USA.gov is the U.S. government's official web portal to all federal, state and local government web resources and services.